Time;durP1;ratioP1;P1;durP2;ratioP2;P2;SDS_P1;SDS_P2;PMS_P1;PMS_P2;Temp;Humidity;BMP_temperature;BMP_pressure;BME280_temperature;BME280_humidity;BME280_pressure;Samples;Min_cycle;Max_cycle;Signal;HPM_P1;HPM_P2
2023/02/17 00:02:42;;;;;;;15.73;5.88;;;11.30;45.90;;;;;;7567184;23;20010;-69
2023/02/17 00:05:44;;;;;;;23.63;5.85;;;11.30;45.90;;;;;;7566897;23;20002;-69
2023/02/17 00:08:45;;;;;;;18.58;5.25;;;11.30;45.70;;;;;;7541353;23;20017;-68
2023/02/17 00:11:46;;;;;;;11.35;4.53;;;11.30;45.50;;;;;;7567419;23;20417;-69
2023/02/17 00:14:47;;;;;;;9.85;4.78;;;11.30;45.40;;;;;;7541222;23;20021;-69
2023/02/17 00:17:48;;;;;;;14.57;4.78;;;11.20;45.20;;;;;;7541834;23;20018;-68
2023/02/17 00:20:49;;;;;;;14.25;5.47;;;11.20;45.30;;;;;;7567753;23;20017;-68
2023/02/17 00:23:51;;;;;;;13.93;4.90;;;11.20;45.30;;;;;;7518286;23;20013;-68
2023/02/17 00:26:52;;;;;;;13.10;4.25;;;11.10;45.20;;;;;;7567987;23;20014;-68
2023/02/17 00:29:52;;;;;;;10.90;4.53;;;11.10;45.20;;;;;;7567618;23;20700;-70
2023/02/17 00:32:53;;;;;;;14.00;4.80;;;11.10;45.10;;;;;;7567844;23;20038;-68
2023/02/17 00:35:54;;;;;;;10.50;4.85;;;11.10;45.10;;;;;;7541952;23;20090;-69
2023/02/17 00:38:56;;;;;;;15.10;4.85;;;11.10;45.10;;;;;;7545313;23;20329;-68
2023/02/17 00:41:57;;;;;;;9.95;4.03;;;11.00;45.00;;;;;;7568044;23;20011;-68
2023/02/17 00:44:58;;;;;;;9.60;4.22;;;11.00;45.00;;;;;;7567774;23;20364;-68
2023/02/17 00:47:59;;;;;;;11.52;4.60;;;10.90;45.00;;;;;;7565945;23;20017;-68
2023/02/17 00:51:00;;;;;;;13.15;5.15;;;11.00;45.00;;;;;;7566195;23;20014;-68
2023/02/17 00:54:01;;;;;;;13.43;3.88;;;10.90;45.00;;;;;;7566418;23;20006;-69
2023/02/17 00:57:02;;;;;;;10.77;4.78;;;10.90;45.70;;;;;;7567424;23;20094;-67
2023/02/17 01:00:08;;;;;;;9.90;4.50;;;10.80;45.10;;;;;;7567476;23;20029;-67
2023/02/17 01:03:09;;;;;;;10.07;4.88;;;10.80;45.30;;;;;;7567352;23;20356;-68
2023/02/17 01:06:21;;;;;;;13.88;5.60;;;10.80;45.40;;;;;;7565923;23;20070;-68
2023/02/17 01:09:22;;;;;;;11.95;6.03;;;10.70;45.50;;;;;;7565934;23;20450;-69
2023/02/17 01:12:23;;;;;;;21.95;7.93;;;10.60;45.90;;;;;;7565289;23;20010;-69
2023/02/17 01:15:26;;;;;;;23.02;8.23;;;10.60;46.20;;;;;;7567252;23;20069;-68
2023/02/17 01:18:27;;;;;;;21.17;8.18;;;10.60;46.70;;;;;;7541126;23;20022;-70
2023/02/17 01:21:30;;;;;;;26.23;8.27;;;10.50;47.10;;;;;;7567463;23;20007;-68
2023/02/17 01:24:31;;;;;;;22.10;8.40;;;10.50;47.50;;;;;;7540699;23;20032;-70
2023/02/17 01:27:32;;;;;;;19.13;7.82;;;10.40;48.10;;;;;;7563745;23;20340;-68
2023/02/17 01:30:34;;;;;;;23.08;8.82;;;10.40;48.60;;;;;;7564922;23;20165;-70
2023/02/17 01:33:36;;;;;;;23.30;8.02;;;10.30;48.80;;;;;;7567322;23;20430;-69
2023/02/17 01:36:37;;;;;;;21.80;9.10;;;10.30;49.00;;;;;;7565465;23;20376;-68
2023/02/17 01:39:38;;;;;;;18.55;8.50;;;10.20;48.90;;;;;;7564881;23;20021;-68
2023/02/17 01:42:40;;;;;;;23.02;8.68;;;10.20;49.20;;;;;;7565027;23;20097;-68
2023/02/17 01:45:49;;;;;;;16.23;7.18;;;10.20;49.40;;;;;;7564889;23;20029;-68
2023/02/17 01:48:51;;;;;;;22.63;8.27;;;10.20;49.60;;;;;;7542231;23;20009;-70
2023/02/17 01:52:02;;;;;;;18.50;7.35;;;10.10;49.80;;;;;;7566364;23;20006;-69
2023/02/17 01:55:08;;;;;;;19.58;7.35;;;10.10;50.10;;;;;;7564788;23;20118;-69
2023/02/17 01:58:14;;;;;;;23.85;6.90;;;9.90;50.40;;;;;;7564733;23;20014;-69
2023/02/17 02:01:16;;;;;;;14.07;6.40;;;9.90;50.60;;;;;;7565398;23;20029;-69
2023/02/17 02:04:21;;;;;;;18.77;6.68;;;9.80;50.90;;;;;;7566915;23;20381;-69
2023/02/17 02:07:28;;;;;;;21.67;8.27;;;9.70;51.10;;;;;;7564997;23;20014;-70
2023/02/17 02:10:30;;;;;;;17.53;7.97;;;9.70;51.30;;;;;;7566905;23;20014;-69
2023/02/17 02:13:31;;;;;;;29.00;6.88;;;9.60;51.40;;;;;;7565085;23;20013;-68
2023/02/17 02:16:54;;;;;;;22.45;7.53;;;9.60;51.50;;;;;;7565142;23;20017;-70
2023/02/17 02:20:13;;;;;;;20.13;7.55;;;9.50;51.60;;;;;;7456710;23;20037;-69
2023/02/17 02:23:34;;;;;;;24.05;7.15;;;9.50;51.70;;;;;;7437222;23;20040;-68
2023/02/17 02:26:41;;;;;;;15.13;7.32;;;9.50;51.70;;;;;;7434901;23;20015;-68
2023/02/17 02:30:09;;;;;;;23.40;6.68;;;9.50;51.80;;;;;;7433215;23;20477;-68
2023/02/17 02:33:19;;;;;;;30.65;8.07;;;9.50;51.70;;;;;;7432931;23;20414;-68
2023/02/17 02:36:36;;;;;;;17.23;7.22;;;9.60;51.70;;;;;;7456790;23;20020;-70
2023/02/17 02:39:43;;;;;;;16.95;6.85;;;9.60;51.50;;;;;;7432557;23;20019;-70
2023/02/17 02:42:45;;;;;;;16.38;7.03;;;9.60;51.40;;;;;;7432973;23;20011;-67
2023/02/17 02:45:47;;;;;;;14.88;6.55;;;9.70;51.20;;;;;;7456508;23;20536;-68
2023/02/17 02:48:49;;;;;;;17.60;7.43;;;9.80;51.10;;;;;;7432470;23;20023;-67
2023/02/17 02:52:13;;;;;;;28.17;6.68;;;9.80;51.10;;;;;;7432872;23;20172;-68
2023/02/17 02:55:36;;;;;;;13.48;5.35;;;9.80;51.00;;;;;;7457375;23;20016;-68
2023/02/17 02:58:40;;;;;;;15.93;5.70;;;9.80;50.80;;;;;;7564293;23;20470;-68
2023/02/17 03:02:20;;;;;;;12.32;5.03;;;9.80;50.60;;;;;;7566345;23;20056;-68
2023/02/17 03:05:31;;;;;;;11.82;5.35;;;9.80;50.30;;;;;;7456122;23;20068;-69
2023/02/17 03:08:41;;;;;;;15.32;5.63;;;9.80;50.20;;;;;;7432651;23;20318;-68
2023/02/17 03:11:43;;;;;;;11.55;4.78;;;9.80;50.60;;;;;;7456441;23;20423;-68
2023/02/17 03:14:47;;;;;;;13.40;5.20;;;9.80;49.90;;;;;;7456537;23;20020;-69
2023/02/17 03:17:48;;;;;;;8.65;4.65;;;9.80;49.60;;;;;;7409749;23;20019;-69
2023/02/17 03:20:56;;;;;;;17.20;4.65;;;9.80;49.50;;;;;;7432302;23;20012;-69
2023/02/17 03:23:59;;;;;;;8.85;4.03;;;9.70;49.50;;;;;;7432713;23;20016;-69
2023/02/17 03:27:00;;;;;;;18.75;5.63;;;9.20;49.00;;;;;;7432329;23;20018;-68
2023/02/17 03:30:02;;;;;;;10.40;4.53;;;9.70;49.20;;;;;;7432613;23;20016;-68
2023/02/17 03:33:03;;;;;;;14.38;4.97;;;9.80;49.30;;;;;;7432374;23;20414;-68
2023/02/17 03:36:04;;;;;;;8.13;3.80;;;9.80;49.20;;;;;;7433062;23;20043;-68
2023/02/17 03:39:06;;;;;;;6.43;3.70;;;9.80;48.90;;;;;;7431772;23;20023;-69
2023/02/17 03:42:07;;;;;;;10.57;3.40;;;9.80;48.70;;;;;;7529580;23;20017;-69
2023/02/17 03:45:08;;;;;;;9.43;3.92;;;9.70;48.40;;;;;;7567237;23;20002;-69
2023/02/17 03:48:09;;;;;;;10.73;4.40;;;9.70;48.20;;;;;;7566019;23;20010;-68
2023/02/17 03:51:16;;;;;;;13.90;4.00;;;9.70;48.20;;;;;;7564868;23;20014;-69
2023/02/17 03:54:17;;;;;;;8.43;3.72;;;9.70;48.10;;;;;;7566247;23;20097;-69
2023/02/17 03:57:18;;;;;;;8.85;3.58;;;9.70;48.00;;;;;;7565467;23;20340;-68
2023/02/17 04:00:20;;;;;;;11.02;3.55;;;9.60;48.00;;;;;;7564335;23;20010;-68
2023/02/17 04:03:25;;;;;;;8.68;3.58;;;9.60;48.00;;;;;;7564415;23;20010;-68
2023/02/17 04:06:26;;;;;;;9.15;3.92;;;9.60;48.00;;;;;;7565977;23;20165;-68
2023/02/17 04:09:27;;;;;;;11.48;3.92;;;9.60;48.10;;;;;;7564098;23;20034;-68
2023/02/17 04:12:28;;;;;;;8.70;3.78;;;9.50;48.10;;;;;;7565936;23;20012;-69
2023/02/17 04:15:29;;;;;;;10.75;4.25;;;9.40;48.00;;;;;;7564205;23;20014;-69
2023/02/17 04:18:31;;;;;;;7.90;3.55;;;9.40;48.20;;;;;;7565141;23;20014;-68
2023/02/17 04:21:32;;;;;;;16.02;5.35;;;9.30;48.30;;;;;;7565658;23;20041;-69
2023/02/17 04:24:35;;;;;;;18.55;6.93;;;9.20;48.50;;;;;;7565932;23;20074;-69
2023/02/17 04:27:36;;;;;;;19.20;7.40;;;9.20;49.30;;;;;;7565311;23;20002;-70
2023/02/17 04:30:37;;;;;;;16.13;6.22;;;9.20;50.00;;;;;;7565836;23;20006;-69
2023/02/17 04:33:38;;;;;;;17.42;7.43;;;9.10;50.30;;;;;;7565795;23;20002;-69
2023/02/17 04:36:39;;;;;;;15.85;7.35;;;9.10;50.60;;;;;;7565621;23;20082;-70
2023/02/17 04:39:40;;;;;;;15.65;7.20;;;9.10;51.00;;;;;;7567276;23;20021;-68
2023/02/17 04:42:41;;;;;;;20.17;9.10;;;9.00;51.00;;;;;;7567966;23;20077;-68
2023/02/17 04:45:42;;;;;;;18.33;7.78;;;9.00;51.10;;;;;;7542042;23;20124;-68
2023/02/17 04:48:43;;;;;;;22.70;8.00;;;9.00;51.20;;;;;;7517660;23;20011;-68
2023/02/17 04:51:44;;;;;;;22.98;7.53;;;9.00;51.30;;;;;;7567701;23;20077;-69
2023/02/17 04:54:45;;;;;;;16.58;7.97;;;9.00;51.60;;;;;;7542399;23;20444;-69
2023/02/17 04:57:46;;;;;;;20.33;7.65;;;9.00;52.00;;;;;;7541397;23;20085;-68
2023/02/17 05:00:49;;;;;;;19.17;7.38;;;8.90;52.20;;;;;;7541104;23;20281;-69
2023/02/17 05:03:50;;;;;;;21.88;7.57;;;8.80;52.40;;;;;;7567345;23;20129;-69
2023/02/17 05:06:51;;;;;;;16.83;6.55;;;8.70;52.60;;;;;;7567310;23;20332;-67
2023/02/17 05:09:53;;;;;;;13.80;6.82;;;8.70;52.90;;;;;;7567197;23;20013;-68
2023/02/17 05:12:54;;;;;;;22.52;7.60;;;8.70;53.10;;;;;;7518250;23;20010;-69
2023/02/17 05:15:55;;;;;;;19.55;7.80;;;8.60;53.20;;;;;;7567783;23;20011;-68
2023/02/17 05:18:56;;;;;;;17.15;7.45;;;8.60;53.30;;;;;;7567339;23;20010;-70
2023/02/17 05:21:57;;;;;;;14.60;7.10;;;8.60;53.40;;;;;;7518237;23;20014;-69
2023/02/17 05:24:58;;;;;;;15.40;7.50;;;8.60;53.40;;;;;;7567806;23;20057;-69
2023/02/17 05:27:59;;;;;;;16.90;7.20;;;8.60;53.50;;;;;;7517806;23;20029;-69
2023/02/17 05:31:01;;;;;;;22.35;8.23;;;8.60;53.40;;;;;;7568097;23;20385;-70
2023/02/17 05:34:02;;;;;;;21.23;8.38;;;8.60;53.40;;;;;;7570717;23;20375;-69
2023/02/17 05:37:04;;;;;;;18.70;7.97;;;8.60;53.30;;;;;;7544504;23;20016;-68
2023/02/17 05:40:06;;;;;;;20.95;7.43;;;8.70;53.30;;;;;;7567605;23;20348;-70
2023/02/17 05:43:07;;;;;;;17.70;7.72;;;8.70;53.30;;;;;;7567170;23;20474;-68
2023/02/17 05:46:08;;;;;;;16.70;8.02;;;8.70;53.20;;;;;;7541701;23;20022;-68
2023/02/17 05:49:09;;;;;;;18.38;8.15;;;8.80;53.20;;;;;;7566443;23;20006;-69
2023/02/17 05:52:10;;;;;;;20.08;7.80;;;8.80;53.20;;;;;;7567259;23;20456;-69
2023/02/17 05:55:13;;;;;;;20.63;8.00;;;8.80;53.10;;;;;;7567206;23;20014;-69
2023/02/17 05:58:14;;;;;;;20.27;8.35;;;8.80;53.10;;;;;;7541272;23;20007;-69
2023/02/17 06:01:15;;;;;;;19.55;6.57;;;8.80;53.10;;;;;;7567224;23;20015;-69
2023/02/17 06:04:17;;;;;;;12.93;6.93;;;8.80;53.30;;;;;;7541442;23;20013;-71
2023/02/17 06:07:18;;;;;;;19.83;6.07;;;8.70;53.40;;;;;;7566588;23;20101;-68
2023/02/17 06:10:19;;;;;;;16.25;6.50;;;8.70;53.50;;;;;;7566896;23;20002;-69
2023/02/17 06:13:20;;;;;;;15.48;6.65;;;8.60;53.50;;;;;;7541256;23;20010;-70
2023/02/17 06:16:21;;;;;;;19.30;7.65;;;8.60;53.60;;;;;;7566650;23;20045;-69
2023/02/17 06:19:23;;;;;;;16.95;7.22;;;8.50;53.70;;;;;;7566172;23;20054;-68
2023/02/17 06:22:24;;;;;;;18.67;7.43;;;8.50;53.70;;;;;;7540739;23;20042;-69
2023/02/17 06:25:25;;;;;;;12.60;6.45;;;8.50;53.80;;;;;;7566573;23;20082;-68
2023/02/17 06:28:26;;;;;;;22.42;8.27;;;8.60;53.90;;;;;;7566083;23;20006;-70
2023/02/17 06:31:27;;;;;;;21.85;8.45;;;8.60;53.90;;;;;;7540786;23;20016;-69
2023/02/17 06:34:28;;;;;;;20.27;8.35;;;8.50;53.90;;;;;;7540854;23;20416;-70
2023/02/17 06:37:30;;;;;;;16.83;7.63;;;8.40;54.00;;;;;;7565781;23;20384;-68
2023/02/17 06:40:31;;;;;;;17.38;7.43;;;8.40;54.00;;;;;;7565997;23;20014;-69
2023/02/17 06:43:32;;;;;;;22.58;8.63;;;8.40;54.10;;;;;;7540694;23;20050;-70
2023/02/17 06:46:33;;;;;;;18.23;8.63;;;8.40;54.20;;;;;;7566534;23;20014;-69
2023/02/17 06:49:35;;;;;;;19.80;8.70;;;8.40;54.30;;;;;;7566107;23;20033;-69
2023/02/17 06:52:36;;;;;;;24.67;8.35;;;8.30;54.20;;;;;;7566533;23;20448;-69
2023/02/17 06:55:38;;;;;;;16.80;7.43;;;8.30;54.20;;;;;;7540796;23;20180;-69
2023/02/17 06:58:39;;;;;;;17.67;7.57;;;8.40;54.30;;;;;;7565341;23;20101;-69
2023/02/17 07:01:40;;;;;;;17.55;6.32;;;8.40;54.20;;;;;;7539920;23;20365;-69
2023/02/17 07:04:42;;;;;;;16.63;6.65;;;8.40;54.20;;;;;;7566007;23;20002;-69
2023/02/17 07:07:43;;;;;;;17.38;6.28;;;8.40;54.10;;;;;;7515913;23;20034;-70
2023/02/17 07:10:44;;;;;;;20.80;6.45;;;8.50;54.10;;;;;;7539903;23;20034;-69
2023/02/17 07:13:45;;;;;;;18.63;6.72;;;8.50;54.10;;;;;;7565811;23;20014;-69
2023/02/17 07:16:46;;;;;;;18.35;6.45;;;8.50;54.00;;;;;;7565868;23;20026;-71
2023/02/17 07:19:47;;;;;;;14.52;6.32;;;8.50;54.00;;;;;;7565491;23;20006;-69
2023/02/17 07:22:48;;;;;;;16.73;6.50;;;8.60;54.00;;;;;;7565599;23;20014;-69
2023/02/17 07:25:49;;;;;;;20.75;6.78;;;8.50;54.00;;;;;;7565950;23;20176;-67
2023/02/17 07:28:51;;;;;;;20.55;7.32;;;8.60;54.00;;;;;;7539517;23;20099;-69
2023/02/17 07:31:54;;;;;;;16.23;6.95;;;8.60;54.00;;;;;;7565222;23;20011;-68
2023/02/17 07:34:55;;;;;;;18.70;7.85;;;8.60;53.90;;;;;;7565804;23;20010;-68
2023/02/17 07:37:57;;;;;;;16.33;6.88;;;8.70;53.80;;;;;;7565460;23;20014;-68
2023/02/17 07:41:07;;;;;;;11.98;5.78;;;8.70;53.80;;;;;;7565900;23;20014;-69
2023/02/17 07:44:08;;;;;;;15.50;6.95;;;8.70;53.60;;;;;;7565759;23;20002;-68
2023/02/17 07:47:36;;;;;;;29.60;8.10;;;8.70;53.70;;;;;;7537615;23;20011;-68
2023/02/17 07:50:37;;;;;;;18.02;8.00;;;8.70;53.80;;;;;;7490342;23;20011;-69
2023/02/17 07:53:38;;;;;;;18.38;6.45;;;8.80;53.90;;;;;;7466569;23;20023;-69
2023/02/17 07:56:40;;;;;;;26.30;7.72;;;8.80;53.80;;;;;;7490524;23;20044;-70
2023/02/17 07:59:41;;;;;;;16.25;8.05;;;8.90;53.70;;;;;;7466530;23;20018;-69
2023/02/17 08:02:42;;;;;;;21.23;9.07;;;8.90;53.60;;;;;;7490444;23;20445;-68
2023/02/17 08:05:43;;;;;;;18.20;7.78;;;8.90;53.60;;;;;;7466634;23;20011;-69
2023/02/17 08:15:24;;;;;;;22.65;9.70;;;9.00;53.30;;;;;;7492848;23;20015;-68
2023/02/17 08:18:25;;;;;;;23.85;8.60;;;9.10;53.30;;;;;;7492415;23;20015;-68
2023/02/17 08:21:27;;;;;;;20.38;8.93;;;9.20;53.20;;;;;;7493146;23;20051;-68
2023/02/17 08:24:28;;;;;;;25.95;9.00;;;9.20;53.10;;;;;;7493207;23;20036;-69
2023/02/17 08:27:29;;;;;;;17.27;7.55;;;9.30;53.00;;;;;;7533674;23;20007;-68
2023/02/17 08:30:50;;;;;;;19.58;9.35;;;9.40;53.00;;;;;;7568049;23;20002;-67
2023/02/17 08:33:52;;;;;;;17.88;8.15;;;9.40;52.80;;;;;;7542326;23;20021;-68
2023/02/17 08:36:53;;;;;;;24.65;8.30;;;9.50;52.60;;;;;;7567794;23;20006;-69
2023/02/17 08:39:54;;;;;;;22.02;8.05;;;9.50;52.50;;;;;;7557494;23;20010;-70
2023/02/17 08:42:55;;;;;;;21.17;7.82;;;9.60;52.40;;;;;;7567823;23;20006;-68
2023/02/17 08:45:56;;;;;;;21.92;7.95;;;9.70;52.30;;;;;;7569440;23;20361;-69
2023/02/17 08:48:57;;;;;;;21.63;7.53;;;9.80;52.10;;;;;;7567728;23;20029;-68
2023/02/17 08:51:59;;;;;;;18.45;7.90;;;9.90;51.90;;;;;;7565884;23;20298;-69
2023/02/17 08:55:00;;;;;;;21.40;8.30;;;10.00;51.70;;;;;;7566215;23;20029;-67
2023/02/17 08:58:01;;;;;;;17.48;7.93;;;10.00;51.60;;;;;;7566330;23;20385;-68
2023/02/17 09:01:03;;;;;;;19.10;8.02;;;10.10;51.50;;;;;;7567150;23;20017;-67
2023/02/17 09:04:07;;;;;;;17.95;7.72;;;10.20;51.30;;;;;;7542832;23;20069;-66
2023/02/17 09:07:11;;;;;;;20.73;8.18;;;10.40;51.10;;;;;;7567872;23;20010;-69
2023/02/17 09:10:13;;;;;;;20.25;8.35;;;10.50;51.00;;;;;;7566823;23;20058;-68
2023/02/17 09:13:14;;;;;;;25.92;9.63;;;10.60;50.80;;;;;;7568678;23;20041;-67
2023/02/17 09:16:17;;;;;;;27.08;9.20;;;10.70;50.60;;;;;;7566741;23;20014;-68
2023/02/17 09:19:22;;;;;;;20.92;8.38;;;10.90;50.40;;;;;;7566027;23;20021;-67
2023/02/17 09:22:23;;;;;;;23.63;8.93;;;10.90;50.20;;;;;;7566203;23;20006;-71
2023/02/17 09:25:25;;;;;;;26.20;8.77;;;11.00;50.10;;;;;;7566428;23;20085;-68
2023/02/17 09:28:26;;;;;;;22.85;8.02;;;11.10;50.10;;;;;;7563447;23;20097;-69
2023/02/17 09:31:28;;;;;;;24.00;8.10;;;11.20;50.00;;;;;;7565427;23;20065;-67
2023/02/17 09:34:29;;;;;;;25.52;8.48;;;11.30;49.60;;;;;;7565796;23;20007;-69
2023/02/17 09:37:31;;;;;;;19.98;7.80;;;11.40;49.40;;;;;;7565379;23;20042;-68
2023/02/17 09:40:47;;;;;;;20.95;7.75;;;11.20;49.30;;;;;;7562631;23;20018;-68
2023/02/17 09:43:49;;;;;;;32.53;9.27;;;11.50;49.30;;;;;;7562477;23;20017;-68
2023/02/17 09:47:01;;;;;;;21.90;7.82;;;11.60;49.20;;;;;;7562601;23;20337;-68
2023/02/17 09:50:18;;;;;;;23.58;8.80;;;11.70;49.10;;;;;;7538285;23;20065;-67
2023/02/17 09:54:00;;;;;;;25.58;8.95;;;11.80;48.70;;;;;;7564499;23;20029;-68
2023/02/17 09:57:03;;;;;;;21.45;7.88;;;11.90;48.60;;;;;;7430139;23;20012;-69
2023/02/17 10:00:28;;;;;;;40.35;9.73;;;12.00;48.60;;;;;;7453468;23;20012;-70
2023/02/17 10:03:39;;;;;;;18.02;7.43;;;12.20;48.40;;;;;;7453529;23;20019;-69
2023/02/17 10:06:44;;;;;;;18.52;7.82;;;12.40;47.90;;;;;;7453128;23;20022;-68
2023/02/17 10:09:58;;;;;;;21.65;6.63;;;12.50;47.40;;;;;;7453969;23;20012;-69
2023/02/17 10:13:01;;;;;;;15.27;6.35;;;12.70;46.90;;;;;;7430785;23;20352;-70
2023/02/17 10:16:10;;;;;;;19.83;7.60;;;12.80;46.60;;;;;;7454008;23;20018;-65
2023/02/17 10:19:53;;;;;;;19.48;7.03;;;12.90;46.40;;;;;;7429721;23;20019;-69
2023/02/17 10:23:00;;;;;;;15.23;6.35;;;13.10;45.70;;;;;;7449691;23;20011;-69
2023/02/17 10:26:33;;;;;;;18.52;6.57;;;13.10;44.60;;;;;;7454818;23;20031;-68
2023/02/17 10:29:44;;;;;;;14.77;6.57;;;13.20;44.60;;;;;;7454197;23;20659;-69
2023/02/17 10:33:02;;;;;;;14.07;5.65;;;13.50;44.30;;;;;;7495119;23;20011;-69
2023/02/17 10:36:11;;;;;;;15.93;5.93;;;14.00;43.10;;;;;;7562732;23;20105;-68
2023/02/17 10:39:25;;;;;;;16.30;6.50;;;14.40;42.00;;;;;;7510782;23;1283745;-68
2023/02/17 10:42:33;;;;;;;13.25;5.90;;;14.70;41.30;;;;;;7565539;23;20014;-69
2023/02/17 10:45:44;;;;;;;19.70;6.82;;;14.90;40.60;;;;;;7566685;23;20058;-68
2023/02/17 10:48:51;;;;;;;12.15;4.85;;;15.00;40.50;;;;;;7565151;23;20009;-67
2023/02/17 10:51:52;;;;;;;24.97;5.70;;;15.30;40.50;;;;;;7540168;23;20018;-69
2023/02/17 10:54:58;;;;;;;10.98;5.43;;;15.50;39.80;;;;;;7565384;23;20018;-67
2023/02/17 10:58:14;;;;;;;10.75;5.07;;;15.80;39.20;;;;;;7540253;23;20074;-69
2023/02/17 11:01:16;;;;;;;9.85;4.78;;;15.90;38.10;;;;;;7540139;23;20010;-70
2023/02/17 11:04:17;;;;;;;12.00;5.70;;;16.10;37.50;;;;;;7540237;23;20010;-69
2023/02/17 11:07:25;;;;;;;14.80;5.75;;;16.20;37.10;;;;;;7515608;23;20021;-69
2023/02/17 11:10:31;;;;;;;17.05;6.05;;;16.30;37.20;;;;;;7565866;23;20014;-69
2023/02/17 11:13:37;;;;;;;10.13;4.50;;;16.60;36.60;;;;;;7565931;23;20038;-68
2023/02/17 11:16:46;;;;;;;16.50;6.60;;;16.90;36.50;;;;;;7515702;23;20097;-68
2023/02/17 11:19:55;;;;;;;12.15;4.60;;;17.20;36.10;;;;;;7565017;23;20417;-68
2023/02/17 11:23:15;;;;;;;9.48;3.25;;;17.50;35.00;;;;;;7539525;23;20300;-69
2023/02/17 11:26:22;;;;;;;10.95;3.10;;;17.90;34.30;;;;;;7540106;23;20105;-68
2023/02/17 11:29:23;;;;;;;18.20;4.95;;;18.30;33.50;;;;;;7564462;23;20421;-69
2023/02/17 11:32:31;;;;;;;17.23;4.95;;;18.70;32.00;;;;;;7564887;23;20042;-68
2023/02/17 11:35:35;;;;;;;11.00;4.18;;;19.10;30.90;;;;;;7564572;23;20026;-67
2023/02/17 11:38:39;;;;;;;16.05;5.22;;;19.50;30.50;;;;;;7564315;23;20097;-68
2023/02/17 11:41:40;;;;;;;14.80;5.57;;;19.90;29.70;;;;;;7565044;23;20024;-67
2023/02/17 11:44:41;;;;;;;9.15;3.33;;;20.30;28.80;;;;;;7565941;23;20020;-70
2023/02/17 11:47:59;;;;;;;7.63;3.22;;;20.80;28.70;;;;;;7567454;23;20010;-69
2023/02/17 11:51:15;;;;;;;;;;;21.40;28.00;;;;;;7569703;23;20314;-67
2023/02/17 11:54:19;;;;;;;4.95;2.88;;;22.10;26.80;;;;;;7568450;23;20335;-67
2023/02/17 11:57:27;;;;;;;8.30;2.85;;;22.70;26.10;;;;;;7541703;23;20010;-72
2023/02/17 12:00:28;;;;;;;;;;;23.10;25.50;;;;;;7542555;23;20384;-73
2023/02/17 12:03:50;;;;;;;6.93;3.25;;;23.50;25.10;;;;;;7566601;23;19919;-67
2023/02/17 12:06:55;;;;;;;7.32;3.78;;;24.00;24.70;;;;;;7566278;23;20007;-67
2023/02/17 12:10:17;;;;;;;8.45;3.75;;;24.40;24.00;;;;;;7567432;23;20002;-68
2023/02/17 12:13:31;;;;;;;6.55;3.70;;;24.50;23.20;;;;;;7567303;23;20033;-66
2023/02/17 12:16:35;;;;;;;12.88;5.00;;;24.50;23.30;;;;;;7567192;23;20033;-67
2023/02/17 12:19:52;;;;;;;14.77;3.63;;;24.70;23.00;;;;;;7565990;23;20026;-67
2023/02/17 12:23:08;;;;;;;11.65;4.45;;;24.80;23.50;;;;;;7541450;23;20380;-67
2023/02/17 12:26:30;;;;;;;11.88;4.07;;;25.00;23.30;;;;;;7541802;23;20101;-69
2023/02/17 12:30:09;;;;;;;9.85;4.32;;;25.10;23.30;;;;;;7566469;23;20038;-68
2023/02/17 12:33:37;;;;;;;14.23;4.10;;;25.30;23.40;;;;;;7545730;23;20010;-68
2023/02/17 12:36:40;;;;;;;9.50;4.13;;;25.50;23.10;;;;;;7567330;23;20010;-67
2023/02/17 12:39:49;;;;;;;16.40;4.72;;;25.40;22.90;;;;;;7528977;23;20026;-68
2023/02/17 12:42:52;;;;;;;;;;;25.30;23.00;;;;;;7567696;23;20081;-67
2023/02/17 12:45:57;;;;;;;8.93;4.00;;;25.30;22.90;;;;;;7567086;23;20337;-69
2023/02/17 12:49:05;;;;;;;13.38;4.90;;;25.40;22.80;;;;;;7566294;23;20369;-70
2023/02/17 12:52:24;;;;;;;10.70;3.97;;;25.40;22.80;;;;;;7566925;23;20157;-68
2023/02/17 12:55:35;;;;;;;12.18;3.78;;;25.00;23.10;;;;;;7564487;23;20018;-68
2023/02/17 12:58:36;;;;;;;11.23;4.45;;;24.50;23.80;;;;;;7562768;23;20070;-69
2023/02/17 13:01:43;;;;;;;7.60;4.05;;;24.00;24.10;;;;;;7565751;23;20042;-68
2023/02/17 13:04:48;;;;;;;9.20;4.68;;;23.60;24.50;;;;;;7564781;23;20374;-68
2023/02/17 13:08:15;;;;;;;8.60;3.53;;;23.10;24.80;;;;;;7564487;23;20082;-68
2023/02/17 13:11:32;;;;;;;12.15;4.35;;;22.60;25.20;;;;;;7549611;23;20018;-68
2023/02/17 13:14:41;;;;;;;11.90;4.47;;;22.10;25.60;;;;;;7567175;23;20029;-67
2023/02/17 13:18:15;;;;;;;14.27;4.75;;;21.70;26.00;;;;;;7564147;23;20014;-69
2023/02/17 13:21:20;;;;;;;13.45;4.30;;;21.40;26.40;;;;;;7432942;23;20016;-68
2023/02/17 13:24:49;;;;;;;8.45;4.10;;;21.10;26.60;;;;;;7456296;23;20018;-69
2023/02/17 13:27:50;;;;;;;6.28;3.55;;;20.80;26.80;;;;;;7456130;23;20008;-68
2023/02/17 13:30:55;;;;;;;12.25;3.38;;;20.60;26.90;;;;;;7456907;23;20544;-68
2023/02/17 13:33:58;;;;;;;7.90;3.67;;;20.40;27.00;;;;;;7456338;23;20009;-68
2023/02/17 13:37:04;;;;;;;8.13;4.05;;;20.20;27.10;;;;;;7455145;23;20007;-68
2023/02/17 13:40:17;;;;;;;8.30;3.90;;;20.00;27.40;;;;;;7430663;23;20056;-69
2023/02/17 13:43:19;;;;;;;14.07;4.32;;;19.90;27.60;;;;;;7453261;23;20039;-68
2023/02/17 13:46:25;;;;;;;19.90;5.07;;;19.80;27.70;;;;;;7454372;23;20437;-69
2023/02/17 13:49:31;;;;;;;17.98;5.63;;;19.70;27.80;;;;;;7454302;23;20012;-67
2023/02/17 13:52:32;;;;;;;7.85;4.35;;;19.60;28.00;;;;;;7454045;23;20302;-68
2023/02/17 13:55:33;;;;;;;9.00;4.20;;;19.60;28.10;;;;;;7431059;23;20027;-68
2023/02/17 13:58:40;;;;;;;18.80;3.33;;;19.60;28.20;;;;;;7551107;23;20372;-69
2023/02/17 14:01:42;;;;;;;24.58;6.00;;;19.50;28.30;;;;;;7563813;23;20010;-69
2023/02/17 14:04:43;;;;;;;6.15;3.13;;;19.50;28.20;;;;;;7563665;23;19998;-68
2023/02/17 14:07:46;;;;;;;4.28;2.72;;;19.50;28.20;;;;;;7563901;23;20014;-68
2023/02/17 14:10:48;;;;;;;5.03;2.25;;;19.50;28.00;;;;;;7565028;23;20010;-68
2023/02/17 14:13:50;;;;;;;7.45;3.05;;;19.50;27.90;;;;;;7563588;23;20065;-67
2023/02/17 14:16:57;;;;;;;7.05;2.65;;;19.50;27.90;;;;;;7564557;23;20007;-68
2023/02/17 14:19:59;;;;;;;9.27;2.92;;;19.40;27.90;;;;;;7564135;23;20007;-69
2023/02/17 14:23:12;;;;;;;9.63;3.03;;;19.40;27.70;;;;;;7564564;23;20014;-69
2023/02/17 14:26:46;;;;;;;6.82;2.70;;;19.40;27.80;;;;;;7564479;23;20108;-68
2023/02/17 14:29:49;;;;;;;5.43;2.42;;;19.40;27.90;;;;;;7563169;23;20373;-69
2023/02/17 14:33:00;;;;;;;4.90;2.47;;;19.40;27.90;;;;;;7562963;23;20025;-69
2023/02/17 14:36:07;;;;;;;6.07;2.72;;;19.40;28.00;;;;;;7563502;23;20093;-69
2023/02/17 14:39:13;;;;;;;14.82;2.58;;;19.40;28.00;;;;;;7563099;23;20499;-68
2023/02/17 14:42:15;;;;;;;5.32;2.45;;;19.40;28.10;;;;;;7564288;23;20034;-68
2023/02/17 14:45:17;;;;;;;3.92;2.40;;;19.40;28.10;;;;;;7563521;23;20460;-65
2023/02/17 14:48:19;;;;;;;6.30;2.75;;;19.40;28.10;;;;;;7564045;23;20006;-63
2023/02/17 14:51:22;;;;;;;6.18;2.85;;;19.40;28.10;;;;;;7564409;23;20013;-65
2023/02/17 14:54:23;;;;;;;9.57;2.80;;;19.40;28.10;;;;;;7538902;23;20038;-64
2023/02/17 14:57:26;;;;;;;4.88;2.17;;;19.40;28.20;;;;;;7563628;23;20006;-65
2023/02/17 15:00:28;;;;;;;6.60;2.35;;;19.40;28.20;;;;;;7538741;23;20014;-64
2023/02/17 15:03:29;;;;;;;8.13;3.08;;;19.40;28.30;;;;;;7539739;23;20026;-63
2023/02/17 15:06:39;;;;;;;8.25;2.42;;;19.40;28.30;;;;;;7565289;23;20082;-63
2023/02/17 15:09:42;;;;;;;8.65;3.13;;;19.40;28.30;;;;;;7538319;23;20010;-64
2023/02/17 15:12:43;;;;;;;10.07;2.47;;;19.40;28.40;;;;;;7537619;23;20014;-64
2023/02/17 15:15:46;;;;;;;7.00;3.13;;;19.40;28.40;;;;;;7564018;23;20010;-64
2023/02/17 15:18:49;;;;;;;7.90;2.20;;;19.40;28.40;;;;;;7538582;23;20030;-64
2023/02/17 15:21:51;;;;;;;3.05;2.10;;;19.40;28.40;;;;;;7564858;23;20048;-65
2023/02/17 15:24:52;;;;;;;6.80;3.03;;;19.40;28.50;;;;;;7564732;23;20413;-63
2023/02/17 15:27:54;;;;;;;4.75;2.42;;;19.40;28.60;;;;;;7514779;23;20085;-63
2023/02/17 15:30:55;;;;;;;5.35;2.28;;;19.40;28.60;;;;;;7538862;23;20069;-69
2023/02/17 15:33:58;;;;;;;6.00;2.70;;;19.40;28.60;;;;;;7564421;23;20014;-68
2023/02/17 15:37:00;;;;;;;10.70;2.83;;;19.40;28.60;;;;;;7538166;23;20089;-66
2023/02/17 15:40:02;;;;;;;10.38;3.42;;;19.40;28.70;;;;;;7563798;23;20018;-68
2023/02/17 15:43:03;;;;;;;6.40;2.90;;;19.40;28.70;;;;;;7564401;23;20316;-68
2023/02/17 15:46:12;;;;;;;11.85;3.25;;;19.40;28.80;;;;;;7564097;23;20032;-69
2023/02/17 15:49:13;;;;;;;6.50;3.15;;;19.30;28.80;;;;;;7563898;23;20017;-67
2023/02/17 15:52:14;;;;;;;8.73;2.60;;;19.30;28.90;;;;;;7538572;23;20093;-67
2023/02/17 15:55:17;;;;;;;5.88;2.50;;;19.30;29.00;;;;;;7563800;23;20010;-68
2023/02/17 15:58:22;;;;;;;19.08;3.13;;;19.30;29.10;;;;;;7538109;23;20013;-67
2023/02/17 16:01:28;;;;;;;7.50;3.00;;;19.30;29.20;;;;;;7538701;23;20409;-67
2023/02/17 16:04:29;;;;;;;4.78;2.15;;;19.20;29.20;;;;;;7538822;23;20030;-67
2023/02/17 16:07:30;;;;;;;5.15;2.83;;;19.20;29.20;;;;;;7537886;23;20428;-66